Time;durP1;ratioP1;P1;durP2;ratioP2;P2;SDS_P1;SDS_P2;PMS_P1;PMS_P2;Temp;Humidity;BMP_temperature;BMP_pressure;BME280_temperature;BME280_humidity;BME280_pressure;Samples;Min_cycle;Max_cycle;Signal;HPM_P1;HPM_P2
2023/08/22 00:02:28;;;;;;;4.72;4.22;;;24.00;99.90;;;;;;4998581;28;20038;-39
2023/08/22 00:04:54;;;;;;;4.45;3.95;;;24.00;99.90;;;;;;4997258;28;20169;-40
2023/08/22 00:07:19;;;;;;;6.30;4.20;;;24.00;99.90;;;;;;4998005;28;20113;-41
2023/08/22 00:09:45;;;;;;;6.95;3.85;;;24.00;99.90;;;;;;4997958;28;20360;-38
2023/08/22 00:12:10;;;;;;;4.22;3.83;;;24.00;99.90;;;;;;4998177;28;20419;-38
2023/08/22 00:14:36;;;;;;;5.47;4.25;;;24.00;99.90;;;;;;4998006;28;20031;-38
2023/08/22 00:17:02;;;;;;;4.72;3.95;;;24.00;99.90;;;;;;4998025;28;20498;-39
2023/08/22 00:19:28;;;;;;;6.45;3.83;;;24.00;99.90;;;;;;4997879;28;20034;-38
2023/08/22 00:21:53;;;;;;;4.15;3.72;;;24.00;99.90;;;;;;4998039;28;20034;-38
2023/08/22 00:24:19;;;;;;;4.03;3.50;;;24.00;99.90;;;;;;4998012;28;20041;-40
2023/08/22 00:26:44;;;;;;;4.28;3.88;;;24.00;99.90;;;;;;4998024;28;20034;-42
2023/08/22 00:29:10;;;;;;;4.53;4.13;;;24.00;99.90;;;;;;4997487;28;20027;-40
2023/08/22 00:31:36;;;;;;;5.78;3.83;;;24.00;99.90;;;;;;4997949;28;20026;-38
2023/08/22 00:34:02;;;;;;;5.90;3.85;;;24.00;99.90;;;;;;4997842;28;20085;-37
2023/08/22 00:36:29;;;;;;;4.97;3.40;;;24.00;99.90;;;;;;4997945;28;20113;-38
2023/08/22 00:38:54;;;;;;;8.20;4.00;;;24.00;99.90;;;;;;4997562;28;20399;-37
2023/08/22 00:41:20;;;;;;;3.97;3.55;;;24.00;99.90;;;;;;4997742;28;20026;-38
2023/08/22 00:43:46;;;;;;;5.10;4.05;;;24.00;99.90;;;;;;4995002;28;20037;-37
2023/08/22 00:46:13;;;;;;;4.97;3.95;;;24.00;99.90;;;;;;4994780;28;20018;-39
2023/08/22 00:48:38;;;;;;;4.57;3.80;;;24.00;99.90;;;;;;4994697;28;20031;-40
2023/08/22 00:51:05;;;;;;;4.10;3.70;;;23.90;99.90;;;;;;4994588;28;20019;-40
2023/08/22 00:53:32;;;;;;;4.63;3.92;;;24.00;99.90;;;;;;4994590;28;20368;-40
2023/08/22 00:55:58;;;;;;;4.20;3.70;;;23.90;99.90;;;;;;4994657;28;20101;-40
2023/08/22 00:58:25;;;;;;;5.85;4.20;;;23.90;99.90;;;;;;4994313;28;20034;-35
2023/08/22 01:00:50;;;;;;;4.53;3.88;;;23.90;99.90;;;;;;4994329;28;20045;-36
2023/08/22 01:03:16;;;;;;;4.63;4.05;;;23.90;99.90;;;;;;4994344;28;20460;-36
2023/08/22 01:05:50;;;;;;;6.93;3.72;;;23.90;99.90;;;;;;4994364;28;20025;-36
2023/08/22 01:08:21;;;;;;;7.20;3.85;;;23.90;99.90;;;;;;4994272;28;20033;-39
2023/08/22 01:10:53;;;;;;;4.20;3.80;;;23.90;99.90;;;;;;4994027;28;20430;-44
2023/08/22 01:13:30;;;;;;;4.13;3.72;;;23.90;99.90;;;;;;4994674;28;20023;-40
2023/08/22 01:15:56;;;;;;;4.45;4.05;;;23.90;99.90;;;;;;4994311;28;20376;-42
2023/08/22 01:18:22;;;;;;;5.70;3.92;;;23.90;99.90;;;;;;4994092;28;20582;-38
2023/08/22 01:20:48;;;;;;;4.53;3.90;;;23.90;99.90;;;;;;4993957;28;20109;-38
2023/08/22 01:23:13;;;;;;;3.92;3.55;;;23.90;99.90;;;;;;4993996;28;20032;-43
2023/08/22 01:25:39;;;;;;;5.22;3.90;;;23.90;99.90;;;;;;4992765;28;20060;-37
2023/08/22 01:28:18;;;;;;;4.45;3.95;;;23.90;99.90;;;;;;4993873;28;20085;-37
2023/08/22 01:30:59;;;;;;;7.63;3.65;;;23.90;99.90;;;;;;4993944;28;20022;-40
2023/08/22 01:33:39;;;;;;;4.28;3.53;;;23.90;99.90;;;;;;4993877;28;20057;-37
2023/08/22 01:36:08;;;;;;;4.65;3.65;;;23.90;99.90;;;;;;4993953;28;20033;-39
2023/08/22 01:38:34;;;;;;;5.55;3.88;;;23.90;99.90;;;;;;4993673;28;20487;-38
2023/08/22 01:41:02;;;;;;;4.40;3.78;;;23.90;99.90;;;;;;4993707;28;20262;-38
2023/08/22 01:43:28;;;;;;;4.85;3.50;;;23.90;99.90;;;;;;4993685;28;20058;-40
2023/08/22 01:45:53;;;;;;;4.22;3.83;;;23.80;99.90;;;;;;4993669;28;20510;-40
2023/08/22 01:48:19;;;;;;;4.32;3.72;;;23.90;99.90;;;;;;4993355;28;20121;-38
2023/08/22 01:50:44;;;;;;;5.65;3.70;;;23.90;99.90;;;;;;4992412;28;20214;-38
2023/08/22 01:53:10;;;;;;;4.18;3.75;;;23.90;99.90;;;;;;4993515;28;20034;-42
2023/08/22 01:55:36;;;;;;;4.45;4.05;;;23.80;99.90;;;;;;4992009;28;20093;-40
2023/08/22 01:58:03;;;;;;;4.72;3.72;;;23.80;99.90;;;;;;4993368;28;20089;-40
2023/08/22 02:00:29;;;;;;;4.80;3.88;;;23.80;99.90;;;;;;4993201;28;20202;-47
2023/08/22 02:02:54;;;;;;;3.83;3.53;;;23.80;99.90;;;;;;4993341;28;20109;-37
2023/08/22 02:05:20;;;;;;;5.68;3.80;;;23.80;99.90;;;;;;4993459;28;20375;-39
2023/08/22 02:07:46;;;;;;;4.00;3.45;;;23.80;99.90;;;;;;4993136;28;20038;-38
2023/08/22 02:10:12;;;;;;;4.25;3.85;;;23.80;99.90;;;;;;4991895;28;20034;-38
2023/08/22 02:12:37;;;;;;;5.57;4.00;;;23.80;99.90;;;;;;4993163;28;20030;-38
2023/08/22 02:15:03;;;;;;;4.10;3.72;;;23.80;99.90;;;;;;4993098;28;20026;-38
2023/08/22 02:17:29;;;;;;;4.97;3.67;;;23.80;99.90;;;;;;4992896;28;20026;-38
2023/08/22 02:19:54;;;;;;;4.60;3.85;;;23.80;99.90;;;;;;4992800;28;20431;-37
2023/08/22 02:22:20;;;;;;;5.03;3.92;;;23.80;99.90;;;;;;4992976;28;20033;-40
2023/08/22 02:24:46;;;;;;;6.78;3.83;;;23.80;99.90;;;;;;4993185;28;20022;-44
2023/08/22 02:27:12;;;;;;;7.63;4.20;;;23.80;99.90;;;;;;4992855;28;20019;-44
2023/08/22 02:29:38;;;;;;;4.78;3.90;;;23.80;99.90;;;;;;4992688;28;20038;-39
2023/08/22 02:32:04;;;;;;;4.72;3.92;;;23.80;99.90;;;;;;4992689;28;20026;-39
2023/08/22 02:34:29;;;;;;;5.22;3.97;;;23.80;99.90;;;;;;4992654;28;20026;-40
2023/08/22 02:36:55;;;;;;;5.03;3.83;;;23.80;99.90;;;;;;4992565;28;20113;-39
2023/08/22 02:39:21;;;;;;;4.30;3.75;;;23.80;99.90;;;;;;4992532;28;20022;-39
2023/08/22 02:41:46;;;;;;;4.47;3.70;;;23.80;99.90;;;;;;4992658;28;20034;-35
2023/08/22 02:44:12;;;;;;;4.85;4.30;;;23.80;99.90;;;;;;4992568;28;20037;-41
2023/08/22 02:46:37;;;;;;;5.13;4.10;;;23.80;99.90;;;;;;4992469;28;20022;-38
2023/08/22 02:49:03;;;;;;;4.88;3.85;;;23.80;99.90;;;;;;4992249;28;20034;-39
2023/08/22 02:51:31;;;;;;;4.75;3.70;;;23.80;99.90;;;;;;4992658;28;20089;-38
2023/08/22 02:53:56;;;;;;;6.80;3.78;;;23.80;99.90;;;;;;4992444;28;20361;-45
2023/08/22 02:56:22;;;;;;;5.85;4.22;;;23.80;99.90;;;;;;4992376;28;20464;-40
2023/08/22 02:58:48;;;;;;;5.80;3.42;;;23.80;99.90;;;;;;4992112;28;20027;-41
2023/08/22 03:01:13;;;;;;;4.93;3.72;;;23.80;99.90;;;;;;4992107;28;20030;-35
2023/08/22 03:03:39;;;;;;;3.92;3.47;;;23.80;99.90;;;;;;4992392;28;20026;-39
2023/08/22 03:06:05;;;;;;;3.97;3.58;;;23.80;99.90;;;;;;4991844;28;20103;-40
2023/08/22 03:08:30;;;;;;;4.57;3.40;;;23.80;99.90;;;;;;4992116;28;20500;-44
2023/08/22 03:11:02;;;;;;;4.82;3.70;;;23.80;99.90;;;;;;4992020;28;20484;-40
2023/08/22 03:13:28;;;;;;;4.18;3.60;;;23.80;99.90;;;;;;4992119;28;20018;-35
2023/08/22 03:15:55;;;;;;;4.07;3.65;;;23.80;99.90;;;;;;4992006;28;20169;-35
2023/08/22 03:18:21;;;;;;;5.22;3.63;;;23.70;99.90;;;;;;4992032;28;20531;-38
2023/08/22 03:20:46;;;;;;;6.05;3.95;;;23.70;99.90;;;;;;4991891;28;20392;-45
2023/08/22 03:23:13;;;;;;;4.78;3.92;;;23.70;99.90;;;;;;4992301;28;20026;-42
2023/08/22 03:25:39;;;;;;;5.57;4.03;;;23.70;99.90;;;;;;4992021;28;20030;-39
2023/08/22 03:28:05;;;;;;;5.88;4.22;;;23.70;99.90;;;;;;4991901;28;20072;-39
2023/08/22 03:30:30;;;;;;;4.60;3.67;;;23.70;99.90;;;;;;4992249;28;20499;-37
2023/08/22 03:32:56;;;;;;;4.30;3.88;;;23.80;99.90;;;;;;4992106;28;20098;-38
2023/08/22 03:35:22;;;;;;;6.75;4.18;;;23.70;99.90;;;;;;4991879;28;20030;-38
2023/08/22 03:37:47;;;;;;;6.50;3.33;;;23.70;99.90;;;;;;4992358;28;20049;-39
2023/08/22 03:40:13;;;;;;;4.47;3.85;;;23.70;99.90;;;;;;4991681;28;20488;-38
2023/08/22 03:42:38;;;;;;;6.57;3.50;;;23.70;99.90;;;;;;4990585;28;20027;-38
2023/08/22 03:45:04;;;;;;;4.70;3.83;;;23.70;99.90;;;;;;4991751;28;20023;-40
2023/08/22 03:47:30;;;;;;;4.35;3.65;;;23.70;99.90;;;;;;4991666;28;20109;-38
2023/08/22 03:49:56;;;;;;;4.53;3.58;;;23.70;99.90;;;;;;4991856;28;20122;-37
2023/08/22 03:52:21;;;;;;;5.80;3.90;;;23.70;99.90;;;;;;4991989;28;20470;-38
2023/08/22 03:54:47;;;;;;;4.47;3.55;;;23.70;99.90;;;;;;4991932;28;20539;-40
2023/08/22 03:57:12;;;;;;;5.00;3.97;;;23.70;99.90;;;;;;4991700;28;20022;-38
2023/08/22 03:59:38;;;;;;;5.15;3.70;;;23.70;99.90;;;;;;4991389;28;20109;-35
2023/08/22 04:02:04;;;;;;;4.35;3.65;;;23.70;99.90;;;;;;4991711;28;20026;-40
2023/08/22 04:04:29;;;;;;;5.07;3.58;;;23.70;99.90;;;;;;4991669;28;20439;-40
2023/08/22 04:06:55;;;;;;;5.32;3.90;;;23.70;99.90;;;;;;4991590;28;20026;-40
2023/08/22 04:09:21;;;;;;;4.60;3.95;;;23.70;99.90;;;;;;4991349;28;20057;-37
2023/08/22 04:11:46;;;;;;;3.92;3.47;;;23.70;99.90;;;;;;4991617;28;20019;-37
2023/08/22 04:14:12;;;;;;;4.45;3.50;;;23.60;99.90;;;;;;4991361;28;20033;-38
2023/08/22 04:16:37;;;;;;;4.10;3.40;;;23.60;99.90;;;;;;4991575;28;20362;-35
2023/08/22 04:19:03;;;;;;;5.55;3.65;;;23.60;99.90;;;;;;4992658;28;20037;-38
2023/08/22 04:21:29;;;;;;;3.80;3.50;;;23.60;99.90;;;;;;4995186;28;20034;-38
2023/08/22 04:23:55;;;;;;;4.25;3.20;;;23.60;99.90;;;;;;4995198;28;20031;-38
2023/08/22 04:26:21;;;;;;;4.25;3.30;;;23.60;99.90;;;;;;4995158;28;20114;-38
2023/08/22 04:28:47;;;;;;;4.35;3.55;;;23.60;99.90;;;;;;4994699;28;20113;-40
2023/08/22 04:31:12;;;;;;;4.50;3.58;;;23.60;99.90;;;;;;4994979;28;20089;-40
2023/08/22 04:33:38;;;;;;;4.85;3.83;;;23.60;99.90;;;;;;4996575;28;20022;-39
2023/08/22 04:36:04;;;;;;;3.90;3.30;;;23.60;99.90;;;;;;4995609;28;20023;-40
2023/08/22 04:38:30;;;;;;;4.50;3.63;;;23.60;99.90;;;;;;4995547;28;20459;-40
2023/08/22 04:40:55;;;;;;;5.20;3.80;;;23.60;99.90;;;;;;4998100;28;20026;-38
2023/08/22 04:43:21;;;;;;;4.40;3.35;;;23.60;99.90;;;;;;4995329;28;20392;-38
2023/08/22 04:45:49;;;;;;;6.50;3.88;;;23.60;99.90;;;;;;4995457;28;20092;-38
2023/08/22 04:48:15;;;;;;;3.88;3.28;;;23.60;99.90;;;;;;4994776;28;20431;-38
2023/08/22 04:50:40;;;;;;;4.15;3.40;;;23.60;99.90;;;;;;4994514;28;20018;-40
2023/08/22 04:53:06;;;;;;;4.00;3.60;;;23.60;99.90;;;;;;4993514;28;20023;-42
2023/08/22 04:55:32;;;;;;;6.18;3.58;;;23.60;99.90;;;;;;4994643;28;20416;-37
2023/08/22 04:57:57;;;;;;;5.20;3.78;;;23.60;99.90;;;;;;4995665;28;20026;-41
2023/08/22 05:00:23;;;;;;;4.72;3.60;;;23.50;99.90;;;;;;4994922;28;20026;-40
2023/08/22 05:02:49;;;;;;;4.38;3.70;;;23.50;99.90;;;;;;4995068;28;20031;-40
2023/08/22 05:05:15;;;;;;;3.60;3.30;;;23.60;99.90;;;;;;4994853;28;20141;-40
2023/08/22 05:07:40;;;;;;;4.30;3.83;;;23.60;99.90;;;;;;4994739;28;20380;-40
2023/08/22 05:10:06;;;;;;;4.57;3.42;;;23.60;99.90;;;;;;4994266;28;20022;-41
2023/08/22 05:12:32;;;;;;;4.97;3.25;;;23.50;99.90;;;;;;4994288;28;20026;-46
2023/08/22 05:14:58;;;;;;;3.85;3.20;;;23.50;99.90;;;;;;4994414;28;20391;-40
2023/08/22 05:17:23;;;;;;;3.72;3.40;;;23.50;99.90;;;;;;4994351;28;20033;-41
2023/08/22 05:19:49;;;;;;;6.80;3.45;;;23.50;99.90;;;;;;4994514;28;20034;-40
2023/08/22 05:22:16;;;;;;;6.95;3.65;;;23.50;99.90;;;;;;4994903;28;20027;-40
2023/08/22 05:24:42;;;;;;;4.65;3.53;;;23.50;99.90;;;;;;4993610;28;20054;-39
2023/08/22 05:27:11;;;;;;;5.07;3.88;;;23.50;99.90;;;;;;4994532;28;20050;-42
2023/08/22 05:29:37;;;;;;;3.97;3.15;;;23.50;99.90;;;;;;4993653;28;20022;-42
2023/08/22 05:32:03;;;;;;;3.28;2.97;;;23.50;99.90;;;;;;4994492;28;20476;-40
2023/08/22 05:34:30;;;;;;;5.00;3.35;;;23.50;99.90;;;;;;4994066;28;20128;-46
2023/08/22 05:36:55;;;;;;;5.10;3.55;;;23.50;99.90;;;;;;4993660;28;20113;-42
2023/08/22 05:39:21;;;;;;;4.05;3.53;;;23.50;99.90;;;;;;4993602;28;20093;-40
2023/08/22 05:41:46;;;;;;;4.60;3.65;;;23.50;99.90;;;;;;4994087;28;20033;-41
2023/08/22 05:44:12;;;;;;;5.32;3.45;;;23.50;99.90;;;;;;4993883;28;20494;-39
2023/08/22 05:46:37;;;;;;;3.65;3.35;;;23.50;99.90;;;;;;4993860;28;20072;-40
2023/08/22 05:49:03;;;;;;;5.55;3.40;;;23.50;99.90;;;;;;4993294;28;20038;-40
2023/08/22 05:51:29;;;;;;;4.05;3.63;;;23.50;99.90;;;;;;4993587;28;20054;-35
2023/08/22 05:53:55;;;;;;;3.97;3.42;;;23.50;99.90;;;;;;4993552;28;20054;-44
2023/08/22 05:56:21;;;;;;;3.67;3.35;;;23.50;99.90;;;;;;4993398;28;20057;-40
2023/08/22 05:58:46;;;;;;;3.55;3.25;;;23.50;99.90;;;;;;4993287;28;20030;-37
2023/08/22 06:01:13;;;;;;;6.65;3.30;;;23.50;99.90;;;;;;4993282;28;20034;-42
2023/08/22 06:03:39;;;;;;;4.00;3.42;;;23.50;99.90;;;;;;4993359;28;20507;-41
2023/08/22 06:06:05;;;;;;;6.63;3.63;;;23.50;99.90;;;;;;4993266;28;20088;-37
2023/08/22 06:08:31;;;;;;;5.88;3.30;;;23.50;99.90;;;;;;4993159;28;20547;-42
2023/08/22 06:10:57;;;;;;;4.22;3.45;;;23.50;99.90;;;;;;4992972;28;20027;-38
2023/08/22 06:13:23;;;;;;;4.55;3.08;;;23.50;99.90;;;;;;4992003;28;20476;-39
2023/08/22 06:15:48;;;;;;;3.97;3.50;;;23.50;99.90;;;;;;4993224;28;20026;-40
2023/08/22 06:18:14;;;;;;;4.15;3.47;;;23.50;99.90;;;;;;4993041;28;20026;-41
2023/08/22 06:20:40;;;;;;;4.57;3.03;;;23.50;99.90;;;;;;4992871;28;20026;-37
2023/08/22 06:23:06;;;;;;;4.47;3.72;;;23.50;99.90;;;;;;4993028;28;20053;-40
2023/08/22 06:25:34;;;;;;;5.82;3.22;;;23.50;99.90;;;;;;4992786;28;20030;-39
2023/08/22 06:28:00;;;;;;;4.82;3.28;;;23.50;99.90;;;;;;4992793;28;20365;-42
2023/08/22 06:30:27;;;;;;;5.28;3.40;;;23.50;99.90;;;;;;4992659;28;20074;-43
2023/08/22 06:32:52;;;;;;;3.90;3.40;;;23.50;99.90;;;;;;4992825;28;20682;-37
2023/08/22 06:35:18;;;;;;;3.00;2.70;;;23.50;99.90;;;;;;4992833;28;20105;-35
2023/08/22 06:37:44;;;;;;;6.00;3.40;;;23.50;99.90;;;;;;4992524;28;20050;-38
2023/08/22 06:40:09;;;;;;;5.20;3.40;;;23.50;99.90;;;;;;4992430;28;20023;-38
2023/08/22 06:42:35;;;;;;;9.75;4.20;;;23.50;99.90;;;;;;4991774;28;20483;-41
2023/08/22 06:45:01;;;;;;;9.10;4.15;;;23.50;99.90;;;;;;4992603;28;20065;-38
2023/08/22 06:47:26;;;;;;;7.88;4.40;;;23.50;99.90;;;;;;4992478;28;20377;-41
2023/08/22 06:49:52;;;;;;;10.48;4.85;;;23.50;99.90;;;;;;4992278;28;20444;-38
2023/08/22 06:52:18;;;;;;;12.23;4.80;;;23.50;99.90;;;;;;4992483;28;20029;-40
2023/08/22 06:54:44;;;;;;;8.07;4.32;;;23.50;99.90;;;;;;4992777;28;20022;-42
2023/08/22 06:57:09;;;;;;;6.97;4.22;;;23.50;99.90;;;;;;4992524;28;20111;-45
2023/08/22 06:59:35;;;;;;;5.70;3.95;;;23.50;99.90;;;;;;4992131;28;20451;-44
2023/08/22 07:02:00;;;;;;;6.93;3.85;;;23.50;99.90;;;;;;4992333;28;20023;-41
2023/08/22 07:04:28;;;;;;;5.55;4.18;;;23.50;99.90;;;;;;4992272;28;20029;-39
2023/08/22 07:06:54;;;;;;;4.75;4.15;;;23.50;99.90;;;;;;4992142;28;20038;-39
2023/08/22 07:09:20;;;;;;;7.05;3.70;;;23.50;99.90;;;;;;4991829;28;20033;-43
2023/08/22 07:11:45;;;;;;;5.47;3.92;;;23.50;99.90;;;;;;4992263;28;20112;-39
2023/08/22 07:14:11;;;;;;;7.53;3.65;;;23.50;99.90;;;;;;4992114;28;20026;-38
2023/08/22 07:16:36;;;;;;;5.22;3.80;;;23.50;99.90;;;;;;4992287;28;20142;-39
2023/08/22 07:19:02;;;;;;;7.63;3.80;;;23.50;99.90;;;;;;4992007;28;20121;-37
2023/08/22 07:21:28;;;;;;;7.80;3.45;;;23.50;99.90;;;;;;4992062;28;20034;-40
2023/08/22 07:23:53;;;;;;;6.18;3.70;;;23.50;99.90;;;;;;4991905;28;20608;-40
2023/08/22 07:26:19;;;;;;;6.95;3.35;;;23.50;99.90;;;;;;4992191;28;20468;-43
2023/08/22 07:28:44;;;;;;;5.90;3.47;;;23.50;99.90;;;;;;4991795;28;20037;-41
2023/08/22 07:31:10;;;;;;;5.95;3.60;;;23.50;99.90;;;;;;4993199;28;20030;-39
2023/08/22 07:33:36;;;;;;;6.75;3.53;;;23.50;99.90;;;;;;4993573;28;20054;-38
2023/08/22 07:36:02;;;;;;;4.75;3.28;;;23.60;99.90;;;;;;4992218;28;20023;-43
2023/08/22 07:38:29;;;;;;;7.45;3.22;;;23.50;99.90;;;;;;4990213;28;20044;-37
2023/08/22 07:40:54;;;;;;;5.65;3.45;;;23.60;99.90;;;;;;4991678;28;20373;-44
2023/08/22 07:43:20;;;;;;;8.85;3.60;;;23.70;99.90;;;;;;4992104;28;20037;-39
2023/08/22 07:45:45;;;;;;;6.45;3.25;;;23.70;99.90;;;;;;4992007;28;20109;-37
2023/08/22 07:48:11;;;;;;;9.25;3.58;;;23.80;99.90;;;;;;4991812;28;20695;-39
2023/08/22 07:50:37;;;;;;;8.15;3.55;;;23.70;99.90;;;;;;4991619;28;20023;-39
2023/08/22 07:53:04;;;;;;;5.40;3.47;;;23.80;99.90;;;;;;4993123;28;20030;-40
2023/08/22 07:55:30;;;;;;;6.32;3.25;;;23.90;99.90;;;;;;4995979;28;20368;-36
2023/08/22 07:57:56;;;;;;;5.43;3.38;;;23.90;99.90;;;;;;4995648;28;20470;-36
2023/08/22 08:00:22;;;;;;;6.63;3.20;;;23.90;99.90;;;;;;4995596;28;20030;-36
2023/08/22 08:02:49;;;;;;;6.72;3.35;;;23.80;99.90;;;;;;4995646;28;20049;-37
2023/08/22 08:05:14;;;;;;;4.47;3.30;;;23.80;99.90;;;;;;4995506;28;20029;-40
2023/08/22 08:07:40;;;;;;;8.35;3.92;;;23.80;99.90;;;;;;4995285;28;20038;-40
2023/08/22 08:10:07;;;;;;;5.90;3.25;;;23.80;99.90;;;;;;4995308;28;20050;-41
2023/08/22 08:12:32;;;;;;;5.60;3.10;;;23.80;99.90;;;;;;4995455;28;20153;-38
2023/08/22 08:14:58;;;;;;;5.95;3.08;;;23.80;99.90;;;;;;4994073;28;20054;-38
2023/08/22 08:17:25;;;;;;;5.03;3.15;;;23.80;99.90;;;;;;4995381;28;20018;-37
2023/08/22 08:19:51;;;;;;;6.10;3.20;;;23.80;99.90;;;;;;4995059;28;20101;-36
2023/08/22 08:22:16;;;;;;;6.43;3.00;;;23.80;99.90;;;;;;4995179;28;20105;-37
2023/08/22 08:24:43;;;;;;;4.65;3.10;;;23.90;99.90;;;;;;4995202;28;20031;-40
2023/08/22 08:27:08;;;;;;;3.28;2.78;;;23.90;99.90;;;;;;4995159;28;20026;-45
2023/08/22 08:29:34;;;;;;;3.65;2.80;;;23.90;99.90;;;;;;4993460;28;20494;-40
2023/08/22 08:32:00;;;;;;;4.40;3.00;;;23.90;99.90;;;;;;4995090;28;20022;-39
2023/08/22 08:34:26;;;;;;;6.57;3.30;;;23.90;99.90;;;;;;4995005;28;20023;-39
2023/08/22 08:36:52;;;;;;;5.60;3.13;;;23.90;99.90;;;;;;4994771;28;20114;-41
2023/08/22 08:39:18;;;;;;;3.25;2.95;;;23.90;99.90;;;;;;4994788;28;20492;-39
2023/08/22 08:42:07;;;;;;;4.30;3.08;;;23.90;99.90;;;;;;4995177;28;20033;-43
2023/08/22 08:44:36;;;;;;;4.93;3.22;;;23.90;99.90;;;;;;4994983;28;20030;-42
2023/08/22 08:47:03;;;;;;;4.63;3.13;;;23.90;99.90;;;;;;4994679;28;20105;-39
2023/08/22 08:49:33;;;;;;;3.97;2.95;;;23.90;99.90;;;;;;4994483;28;20042;-39
2023/08/22 08:52:04;;;;;;;4.18;2.80;;;23.90;99.90;;;;;;4994906;28;20058;-40
2023/08/22 08:54:31;;;;;;;3.95;3.10;;;23.90;99.90;;;;;;4994686;28;20034;-40
2023/08/22 08:56:57;;;;;;;4.53;2.95;;;23.90;99.90;;;;;;4994602;28;20027;-40
2023/08/22 08:59:23;;;;;;;3.40;2.85;;;24.00;99.90;;;;;;4994397;28;20077;-39
2023/08/22 09:01:52;;;;;;;2.70;2.40;;;23.90;99.90;;;;;;4994564;28;20041;-41
2023/08/22 09:04:19;;;;;;;3.25;2.75;;;24.00;99.90;;;;;;4993624;28;20027;-39
2023/08/22 09:06:46;;;;;;;3.60;2.60;;;24.00;99.90;;;;;;4994412;28;20023;-39
2023/08/22 09:09:12;;;;;;;3.28;2.60;;;24.00;99.90;;;;;;4994025;28;20030;-39
2023/08/22 09:11:50;;;;;;;3.20;2.42;;;24.00;99.90;;;;;;4994443;28;20018;-41
2023/08/22 09:14:20;;;;;;;3.00;2.70;;;24.00;99.90;;;;;;4994157;28;20026;-39
2023/08/22 09:16:46;;;;;;;4.35;2.60;;;24.00;99.90;;;;;;4994292;28;20511;-40
2023/08/22 09:19:12;;;;;;;4.18;2.35;;;24.00;99.90;;;;;;4993892;28;20052;-39
2023/08/22 09:21:37;;;;;;;3.28;2.75;;;24.00;99.90;;;;;;4994175;28;20033;-44
2023/08/22 09:24:10;;;;;;;2.90;2.63;;;24.00;99.90;;;;;;4994158;28;20031;-46
2023/08/22 09:26:37;;;;;;;5.38;2.53;;;24.00;99.90;;;;;;4993990;28;20484;-41
2023/08/22 09:29:07;;;;;;;3.63;2.72;;;24.00;99.90;;;;;;4993737;28;20034;-43
2023/08/22 09:31:35;;;;;;;5.15;2.60;;;24.00;99.90;;;;;;4994027;28;20037;-40
2023/08/22 09:34:08;;;;;;;3.72;2.75;;;24.00;99.90;;;;;;4993974;28;20026;-41
2023/08/22 09:36:33;;;;;;;3.47;2.30;;;24.10;99.90;;;;;;4994361;28;20018;-48
2023/08/22 09:38:59;;;;;;;4.43;2.50;;;24.10;99.90;;;;;;4994030;28;20407;-40
2023/08/22 09:41:26;;;;;;;3.33;2.80;;;24.10;99.90;;;;;;4993790;28;20087;-40
2023/08/22 09:43:54;;;;;;;3.30;2.50;;;24.10;99.90;;;;;;4993790;28;20029;-44
2023/08/22 09:46:21;;;;;;;3.33;2.28;;;24.10;99.90;;;;;;4993749;28;20535;-41
2023/08/22 09:48:50;;;;;;;3.30;2.83;;;24.10;99.90;;;;;;4993507;28;20054;-37
2023/08/22 09:51:20;;;;;;;2.63;2.40;;;24.20;99.90;;;;;;4993594;28;20023;-39
2023/08/22 09:53:59;;;;;;;2.47;2.08;;;24.20;99.90;;;;;;4993517;28;20022;-39
2023/08/22 09:56:25;;;;;;;4.35;2.80;;;24.20;99.90;;;;;;4994022;28;20026;-36
2023/08/22 09:58:52;;;;;;;2.83;2.53;;;24.20;99.90;;;;;;4993703;28;20571;-36
2023/08/22 10:01:19;;;;;;;3.17;2.45;;;24.20;99.90;;;;;;4993454;28;20037;-37
2023/08/22 10:03:49;;;;;;;3.15;2.50;;;24.20;99.90;;;;;;4993480;28;20093;-38
2023/08/22 10:06:15;;;;;;;3.00;2.45;;;24.30;99.90;;;;;;4993288;28;20022;-37
2023/08/22 10:08:42;;;;;;;3.35;2.60;;;24.30;99.90;;;;;;4993082;28;20030;-38
2023/08/22 10:11:10;;;;;;;2.83;2.28;;;24.30;99.90;;;;;;4993133;28;20018;-36
2023/08/22 10:13:37;;;;;;;2.80;2.40;;;24.30;99.90;;;;;;4993244;28;20499;-37
2023/08/22 10:16:03;;;;;;;2.80;2.50;;;24.30;99.90;;;;;;4993156;28;20137;-42
2023/08/22 10:18:29;;;;;;;2.75;2.28;;;24.30;99.90;;;;;;4993028;28;20507;-38
2023/08/22 10:20:56;;;;;;;4.55;2.53;;;24.30;99.90;;;;;;4992713;28;20105;-39
2023/08/22 10:23:52;;;;;;;2.97;2.40;;;24.30;99.90;;;;;;4993019;28;20030;-38
2023/08/22 10:26:19;;;;;;;2.85;2.50;;;24.40;99.90;;;;;;4993002;28;20105;-37
2023/08/22 10:29:18;;;;;;;3.72;2.60;;;24.30;99.90;;;;;;4992670;28;20030;-39
2023/08/22 10:32:01;;;;;;;3.75;2.30;;;24.30;99.90;;;;;;4993155;28;20073;-37
2023/08/22 10:34:33;;;;;;;4.97;3.00;;;24.40;99.90;;;;;;4992720;28;20026;-37
2023/08/22 10:37:03;;;;;;;7.10;3.30;;;24.40;99.90;;;;;;4992597;28;20029;-43
2023/08/22 10:39:44;;;;;;;5.22;3.17;;;24.40;99.90;;;;;;4992526;28;20480;-38
2023/08/22 10:42:22;;;;;;;5.57;3.50;;;24.40;99.90;;;;;;4992679;28;20476;-39
2023/08/22 10:44:56;;;;;;;7.43;3.75;;;24.40;99.90;;;;;;4992570;28;20057;-38
2023/08/22 10:47:31;;;;;;;7.78;3.53;;;24.40;99.90;;;;;;4992573;28;20087;-39
2023/08/22 10:49:59;;;;;;;5.22;3.60;;;24.40;99.90;;;;;;4992171;28;20088;-38
2023/08/22 10:52:28;;;;;;;5.88;3.50;;;24.40;99.90;;;;;;4992522;28;20018;-36
2023/08/22 10:55:00;;;;;;;6.75;3.50;;;24.40;99.90;;;;;;4992435;28;20076;-37
2023/08/22 10:57:27;;;;;;;4.90;3.20;;;24.40;99.90;;;;;;4992370;28;20030;-41
2023/08/22 10:59:59;;;;;;;5.93;3.25;;;24.40;99.90;;;;;;4992148;28;20034;-38
2023/08/22 11:02:33;;;;;;;3.60;2.92;;;24.40;99.90;;;;;;4992295;28;20052;-38
2023/08/22 11:05:03;;;;;;;7.10;2.85;;;24.40;99.90;;;;;;4992420;28;20026;-38
2023/08/22 11:07:30;;;;;;;5.60;3.55;;;24.40;99.90;;;;;;4992257;28;20045;-38
2023/08/22 11:09:56;;;;;;;4.03;2.83;;;24.40;99.90;;;;;;4992033;28;20030;-37
2023/08/22 11:12:23;;;;;;;4.50;3.20;;;24.40;99.90;;;;;;4992146;28;20034;-37
2023/08/22 11:14:51;;;;;;;3.60;3.00;;;24.40;99.90;;;;;;4992132;28;20037;-41
2023/08/22 11:17:19;;;;;;;5.80;3.60;;;24.40;99.90;;;;;;4992013;28;20015;-40
2023/08/22 11:19:46;;;;;;;6.30;3.60;;;24.50;99.90;;;;;;4991914;28;20099;-36
2023/08/22 11:22:12;;;;;;;4.57;3.70;;;24.50;99.90;;;;;;4992260;28;20030;-38
2023/08/22 11:24:41;;;;;;;7.90;4.13;;;24.50;99.90;;;;;;4992050;28;20038;-40
2023/08/22 11:27:07;;;;;;;8.23;4.13;;;24.50;99.90;;;;;;4991568;28;20018;-39
2023/08/22 11:29:59;;;;;;;4.88;3.20;;;24.50;99.90;;;;;;4991768;28;20476;-37
2023/08/22 11:32:27;;;;;;;9.95;3.25;;;24.50;99.90;;;;;;4990018;28;20088;-38
2023/08/22 11:35:01;;;;;;;6.13;3.58;;;24.50;99.90;;;;;;4992064;28;20058;-38
2023/08/22 11:37:29;;;;;;;6.72;3.40;;;24.50;99.90;;;;;;4991740;28;20476;-38
2023/08/22 11:39:59;;;;;;;4.07;3.10;;;24.50;99.90;;;;;;4991643;28;20032;-39
2023/08/22 11:42:29;;;;;;;5.97;3.08;;;24.50;99.90;;;;;;4991871;28;20031;-38
2023/08/22 11:45:05;;;;;;;3.78;3.38;;;24.50;99.90;;;;;;4991828;28;20076;-39
2023/08/22 11:47:51;;;;;;;4.10;2.97;;;24.50;99.90;;;;;;4991764;28;20022;-38
2023/08/22 11:50:21;;;;;;;6.40;3.17;;;24.50;99.90;;;;;;4991531;28;20031;-40
2023/08/22 11:52:48;;;;;;;7.30;3.28;;;24.50;99.90;;;;;;4991820;28;20023;-38
2023/08/22 11:55:24;;;;;;;3.92;3.10;;;24.50;99.90;;;;;;4991772;28;20030;-38
2023/08/22 11:57:50;;;;;;;4.15;3.00;;;24.50;99.90;;;;;;4992010;28;20318;-38
2023/08/22 12:00:16;;;;;;;4.15;3.03;;;24.50;99.90;;;;;;4991572;28;20105;-38
2023/08/22 12:02:52;;;;;;;4.53;3.15;;;24.50;99.90;;;;;;4991624;28;20041;-38
2023/08/22 12:05:34;;;;;;;7.80;3.65;;;24.50;99.90;;;;;;4991710;28;20030;-39
2023/08/22 12:08:20;;;;;;;6.47;3.92;;;24.60;99.90;;;;;;4991572;28;20038;-38
2023/08/22 12:10:50;;;;;;;6.00;3.20;;;24.70;99.90;;;;;;4991509;28;20042;-38
2023/08/22 12:13:18;;;;;;;5.55;3.20;;;24.90;99.90;;;;;;4991514;28;20030;-40
2023/08/22 12:15:45;;;;;;;5.75;3.88;;;24.90;99.90;;;;;;4991615;28;20026;-41
2023/08/22 12:18:11;;;;;;;7.15;3.38;;;25.00;99.90;;;;;;4990226;28;20033;-40
2023/08/22 12:20:39;;;;;;;8.10;3.53;;;25.10;99.90;;;;;;4991414;28;20057;-40
2023/08/22 12:23:06;;;;;;;7.57;3.88;;;25.50;99.90;;;;;;4991637;28;20022;-40
2023/08/22 12:25:36;;;;;;;5.38;3.65;;;25.40;99.90;;;;;;4991550;28;20065;-40
2023/08/22 12:28:05;;;;;;;7.32;3.60;;;25.30;99.90;;;;;;4991206;28;20069;-41
2023/08/22 12:30:33;;;;;;;5.38;3.47;;;25.20;99.90;;;;;;4991304;28;20361;-41
2023/08/22 12:33:00;;;;;;;7.90;3.67;;;25.20;99.90;;;;;;4991394;28;20018;-40
2023/08/22 12:35:26;;;;;;;7.57;3.58;;;25.10;99.90;;;;;;4990173;28;20035;-41
2023/08/22 12:37:52;;;;;;;4.40;3.65;;;25.00;99.90;;;;;;4991190;28;20121;-38
2023/08/22 12:40:17;;;;;;;6.32;3.78;;;25.00;99.90;;;;;;4992856;28;20118;-39
2023/08/22 12:42:45;;;;;;;7.47;4.05;;;24.90;99.90;;;;;;4994816;28;20030;-41
2023/08/22 12:45:10;;;;;;;4.18;3.55;;;24.90;99.90;;;;;;4994901;28;20023;-40
2023/08/22 12:47:37;;;;;;;7.13;4.07;;;24.90;99.90;;;;;;4994640;28;20023;-40
2023/08/22 12:50:03;;;;;;;4.90;3.60;;;24.90;99.90;;;;;;4994607;28;20027;-40